Time;durP1;ratioP1;P1;durP2;ratioP2;P2;SDS_P1;SDS_P2;PMS_P1;PMS_P2;Temp;Humidity;BMP_temperature;BMP_pressure;BME280_temperature;BME280_humidity;BME280_pressure;Samples;Min_cycle;Max_cycle;Signal;HPM_P1;HPM_P2
2022/10/19 00:00:40;;;;;;;78.82;30.42;;;11.70;99.90;;;;;;6218737;23;20003;-92
2022/10/19 00:03:32;;;;;;;80.25;31.65;;;11.60;99.90;;;;;;6231676;23;20028;-93
2022/10/19 00:10:50;;;;;;;;;;;;;;;;;;;;;
2022/10/19 00:18:12;;;;;;;64.78;26.25;;;11.10;99.90;;;;;;6127061;23;20049;-92
2022/10/19 00:21:41;;;;;;;;;;;;;;;;;;;;;
2022/10/19 00:24:37;;;;;;;83.68;28.92;;;11.00;99.90;;;;;;6126959;23;20033;-92
2022/10/19 00:27:38;;;;;;;104.72;35.03;;;11.00;99.90;;;;;;6110619;23;20021;-95
2022/10/19 00:30:34;;;;;;;98.40;32.80;;;10.90;99.90;;;;;;6111175;23;20449;-93
2022/10/19 00:33:33;;;;;;;92.45;32.45;;;10.90;99.90;;;;;;6121315;23;20032;-92
2022/10/19 00:36:54;;;;;;;;;;;;;;;;;;;;;
2022/10/19 00:40:47;;;;;;;90.15;31.63;;;10.70;99.90;;;;;;6126937;23;20467;-92
2022/10/19 00:52:12;;;;;;;120.30;36.60;;;10.80;99.90;;;;;;5700105;25;20021;-94
2022/10/19 00:58:58;;;;;;;;;;;;;;;;;;;;;
2022/10/19 01:22:51;;;;;;;;;;;;;;;;;;;;;
2022/10/19 01:30:32;;;;;;;;;;;;;;;;;;;;;
2022/10/19 01:34:22;;;;;;;;;;;;;;;;;;;;;
2022/10/19 01:42:03;;;;;;;172.35;33.17;;;11.30;99.90;;;;;;6183076;23;20009;-90
2022/10/19 01:45:46;;;;;;;209.68;31.15;;;11.20;99.90;;;;;;6149708;23;20014;-88
2022/10/19 01:54:18;;;;;;;231.73;36.30;;;11.10;99.90;;;;;;6255340;22;20020;-89
2022/10/19 01:57:32;;;;;;;216.45;39.25;;;11.20;99.90;;;;;;6136724;23;20020;-88
2022/10/19 02:07:55;;;;;;;290.38;43.38;;;10.90;99.90;;;;;;6031839;23;20027;-92
2022/10/19 02:11:49;;;;;;;284.65;40.10;;;11.00;99.90;;;;;;5972593;23;20028;-92
2022/10/19 02:15:24;;;;;;;198.57;38.78;;;11.20;99.90;;;;;;6098754;23;20027;-92
2022/10/19 02:26:20;;;;;;;;;;;;;;;;;;;;;
2022/10/19 02:29:54;;;;;;;193.25;35.75;;;11.50;99.90;;;;;;6018821;23;20031;-93
2022/10/19 02:33:22;;;;;;;186.90;36.60;;;11.50;99.90;;;;;;6015663;23;20044;-93
2022/10/19 02:40:12;;;;;;;516.28;50.75;;;11.50;99.90;;;;;;6041234;23;20138;-93
2022/10/19 02:43:21;;;;;;;;;;;;;;;;;;;;;
2022/10/19 02:50:53;;;;;;;;;;;;;;;;;;;;;
2022/10/19 02:54:27;;;;;;;290.42;45.10;;;11.40;99.90;;;;;;5957403;24;20096;-93
2022/10/19 03:01:23;;;;;;;;;;;;;;;;;;;;;
2022/10/19 03:05:32;;;;;;;;;;;;;;;;;;;;;
2022/10/19 03:08:51;;;;;;;204.75;38.80;;;11.70;99.90;;;;;;5988534;23;20028;-94
2022/10/19 03:12:33;;;;;;;298.40;39.83;;;11.80;99.90;;;;;;5941148;24;20089;-94
2022/10/19 03:16:10;;;;;;;;;;;;;;;;;;;;;
2022/10/19 03:19:45;;;;;;;;;;;;;;;;;;;;;
2022/10/19 03:23:00;;;;;;;;;;;;;;;;;;;;;
2022/10/19 03:29:31;;;;;;;432.30;53.85;;;12.20;99.90;;;;;;6044211;23;20160;-92
2022/10/19 03:32:23;;;;;;;330.35;52.33;;;12.20;99.90;;;;;;6041516;23;20023;-93
2022/10/19 03:35:42;;;;;;;416.88;50.58;;;12.20;99.90;;;;;;6063780;23;20019;-93
2022/10/19 03:39:17;;;;;;;;;;;;;;;;;;;;;
2022/10/19 03:42:10;;;;;;;290.63;39.90;;;12.10;99.90;;;;;;6072861;23;20049;-93
2022/10/19 03:49:52;;;;;;;;;;;;;;;;;;;;;
2022/10/19 03:53:22;;;;;;;386.17;36.58;;;12.20;99.90;;;;;;6150186;23;20022;-94
2022/10/19 03:56:34;;;;;;;325.90;29.27;;;12.30;99.90;;;;;;6133082;23;20024;-93
2022/10/19 03:59:24;;;;;;;417.73;36.72;;;12.40;99.90;;;;;;6119489;23;20073;-94
2022/10/19 04:03:14;;;;;;;;;;;;;;;;;;;;;
2022/10/19 04:06:34;;;;;;;168.52;26.65;;;12.50;99.90;;;;;;6125986;23;20126;-94
2022/10/19 04:09:42;;;;;;;265.00;34.30;;;12.60;99.90;;;;;;6162547;23;20055;-92
2022/10/19 04:16:54;;;;;;;192.10;30.23;;;12.60;99.90;;;;;;6251395;23;19919;-93
2022/10/19 04:20:34;;;;;;;231.57;34.85;;;12.70;99.90;;;;;;6249255;23;20024;-93
2022/10/19 04:26:59;;;;;;;321.20;40.22;;;12.80;99.90;;;;;;6252803;23;20024;-89
2022/10/19 04:29:48;;;;;;;241.57;36.03;;;12.80;99.90;;;;;;6228457;23;20034;-93
2022/10/19 04:32:38;;;;;;;380.08;40.45;;;12.90;99.90;;;;;;6227566;23;20074;-92
2022/10/19 04:35:25;;;;;;;381.77;44.85;;;12.90;99.90;;;;;;6254220;23;20307;-93
2022/10/19 04:38:13;;;;;;;462.08;47.55;;;12.90;99.90;;;;;;6252050;23;20120;-91
2022/10/19 04:41:06;;;;;;;512.85;51.60;;;12.80;99.90;;;;;;6227322;23;20028;-93
2022/10/19 04:43:56;;;;;;;411.00;50.65;;;12.80;99.90;;;;;;6226200;23;20055;-91
2022/10/19 04:46:43;;;;;;;291.38;41.65;;;12.70;99.90;;;;;;6246626;23;20726;-94
2022/10/19 04:49:30;;;;;;;288.27;41.60;;;12.80;99.90;;;;;;6228862;23;20050;-92
2022/10/19 04:52:20;;;;;;;282.83;41.08;;;12.80;99.90;;;;;;6250774;23;20211;-94
2022/10/19 04:55:07;;;;;;;251.20;36.22;;;12.80;99.90;;;;;;6229060;23;20020;-90
2022/10/19 04:57:54;;;;;;;256.45;39.50;;;12.80;99.90;;;;;;6251763;23;20032;-92
2022/10/19 05:00:42;;;;;;;217.05;36.22;;;12.80;99.90;;;;;;6254133;23;20052;-93
2022/10/19 05:03:29;;;;;;;207.23;36.17;;;12.80;99.90;;;;;;6236338;23;20419;-92
2022/10/19 05:06:16;;;;;;;184.45;32.50;;;12.80;99.90;;;;;;6240799;23;20021;-93
2022/10/19 05:09:08;;;;;;;242.90;28.55;;;12.80;99.90;;;;;;6218334;23;20080;-92
2022/10/19 05:11:58;;;;;;;262.92;32.10;;;12.80;99.90;;;;;;6256849;23;20024;-92
2022/10/19 05:14:45;;;;;;;231.75;32.28;;;12.80;99.90;;;;;;6255425;23;20024;-93
2022/10/19 05:17:35;;;;;;;251.20;35.13;;;12.80;99.90;;;;;;6254066;23;20028;-92
2022/10/19 05:20:26;;;;;;;230.40;37.85;;;12.80;99.90;;;;;;6232379;23;20400;-91
2022/10/19 05:23:17;;;;;;;341.98;48.13;;;12.70;99.90;;;;;;6252650;23;20024;-91
2022/10/19 05:26:16;;;;;;;296.08;45.83;;;12.60;99.90;;;;;;6250909;23;20024;-93
2022/10/19 05:29:03;;;;;;;244.60;39.40;;;12.50;99.90;;;;;;6253647;23;20034;-95
2022/10/19 05:31:51;;;;;;;226.77;39.22;;;12.50;99.90;;;;;;6232481;23;20042;-93
2022/10/19 05:34:40;;;;;;;242.48;39.83;;;12.50;99.90;;;;;;6252142;23;20028;-92
2022/10/19 05:37:28;;;;;;;298.52;38.85;;;12.50;99.90;;;;;;6255730;23;20042;-91
2022/10/19 05:40:17;;;;;;;186.30;31.30;;;12.60;99.90;;;;;;6251314;23;20052;-92
2022/10/19 05:43:07;;;;;;;231.82;36.13;;;12.60;99.90;;;;;;6229973;23;20526;-92
2022/10/19 05:45:54;;;;;;;243.48;36.15;;;12.70;99.90;;;;;;6231086;23;20183;-91
2022/10/19 05:48:42;;;;;;;223.45;34.63;;;12.70;99.90;;;;;;6252537;23;20028;-93
2022/10/19 05:51:29;;;;;;;219.27;35.45;;;12.70;99.90;;;;;;6229402;23;20080;-92
2022/10/19 05:54:17;;;;;;;187.73;33.95;;;12.70;99.90;;;;;;6231098;23;20079;-92
2022/10/19 05:57:04;;;;;;;210.23;32.15;;;12.70;99.90;;;;;;6231135;23;20024;-93
2022/10/19 05:59:55;;;;;;;277.10;34.58;;;12.70;99.90;;;;;;6230732;23;20285;-92
2022/10/19 06:02:42;;;;;;;201.73;32.05;;;12.80;99.90;;;;;;6229701;23;20023;-94
2022/10/19 06:05:31;;;;;;;216.23;34.60;;;12.70;99.90;;;;;;6251296;23;20020;-92
2022/10/19 06:08:19;;;;;;;210.05;31.92;;;12.70;99.90;;;;;;6232911;23;20339;-92
2022/10/19 06:11:17;;;;;;;228.98;33.08;;;12.70;99.90;;;;;;6230514;23;20028;-94
2022/10/19 06:14:12;;;;;;;264.08;38.50;;;12.70;99.90;;;;;;6231368;23;20088;-93
2022/10/19 06:17:00;;;;;;;302.10;38.97;;;12.70;99.90;;;;;;6232206;23;20028;-92
2022/10/19 06:19:47;;;;;;;278.48;39.03;;;12.70;99.90;;;;;;6255235;23;20107;-93
2022/10/19 06:22:37;;;;;;;320.23;40.47;;;12.80;99.90;;;;;;6261268;23;20103;-92
2022/10/19 06:25:29;;;;;;;466.08;44.88;;;12.70;99.90;;;;;;6242553;23;20047;-91
2022/10/19 06:28:18;;;;;;;276.80;40.40;;;12.70;99.90;;;;;;6245278;23;20050;-92
2022/10/19 06:31:21;;;;;;;;;;;;;;;;;;;;;
2022/10/19 06:34:20;;;;;;;;;;;;;;;;;;;;;
2022/10/19 06:37:11;;;;;;;349.38;42.67;;;12.70;99.90;;;;;;6253343;23;20020;-95
2022/10/19 06:39:59;;;;;;;367.30;43.63;;;12.70;99.90;;;;;;6252082;23;20127;-92
2022/10/19 06:42:54;;;;;;;369.30;41.28;;;12.80;99.90;;;;;;6232547;23;20109;-93
2022/10/19 06:45:42;;;;;;;487.20;44.17;;;12.80;99.90;;;;;;6253533;22;20035;-93
2022/10/19 06:48:30;;;;;;;243.45;41.40;;;12.80;99.90;;;;;;6233028;23;20082;-93
2022/10/19 06:51:18;;;;;;;440.10;48.42;;;12.80;99.90;;;;;;6231303;23;20162;-93
2022/10/19 06:54:10;;;;;;;458.17;44.03;;;12.80;99.90;;;;;;6210494;23;20051;-94
2022/10/19 06:57:09;;;;;;;576.85;44.22;;;12.70;99.90;;;;;;6256372;23;20024;-92
2022/10/19 06:59:57;;;;;;;363.25;43.53;;;12.70;99.90;;;;;;6252792;23;20030;-94
2022/10/19 07:02:50;;;;;;;514.63;50.50;;;12.80;99.90;;;;;;6255400;22;20024;-94
2022/10/19 07:06:30;;;;;;;471.02;44.95;;;12.80;99.90;;;;;;6238558;23;20024;-93
2022/10/19 07:09:37;;;;;;;305.80;40.08;;;12.90;99.90;;;;;;6258745;23;20035;-93
2022/10/19 07:12:30;;;;;;;272.95;34.08;;;12.90;99.90;;;;;;6244922;23;20039;-93
2022/10/19 07:20:09;;;;;;;315.10;34.35;;;12.80;99.90;;;;;;6084316;23;20032;-91
2022/10/19 07:24:13;;;;;;;;;;;;;;;;;;;;;
2022/10/19 07:27:53;;;;;;;;;;;;;;;;;;;;;
2022/10/19 07:34:52;;;;;;;357.63;39.17;;;12.90;99.90;;;;;;5963529;23;20104;-93
2022/10/19 07:38:28;;;;;;;344.08;37.17;;;13.00;99.90;;;;;;6015579;23;20027;-91
2022/10/19 07:41:39;;;;;;;306.33;38.13;;;13.00;99.90;;;;;;5991195;24;20110;-93
2022/10/19 07:45:08;;;;;;;331.85;37.17;;;13.00;99.90;;;;;;5986087;24;20043;-91
2022/10/19 07:48:19;;;;;;;296.20;38.88;;;13.00;99.90;;;;;;5989420;24;20024;-94
2022/10/19 07:51:58;;;;;;;289.95;36.58;;;13.00;99.90;;;;;;5901962;24;20038;-93
2022/10/19 07:55:03;;;;;;;199.57;33.72;;;13.00;99.90;;;;;;5886469;24;20026;-95
2022/10/19 07:58:08;;;;;;;206.02;36.75;;;13.10;99.90;;;;;;5922345;23;20044;-92
2022/10/19 08:01:55;;;;;;;207.88;37.58;;;13.10;99.90;;;;;;6052769;23;20043;-92
2022/10/19 08:05:33;;;;;;;175.18;39.08;;;13.10;99.90;;;;;;6035459;23;20031;-92
2022/10/19 08:08:24;;;;;;;175.18;40.33;;;13.10;99.90;;;;;;6169834;23;20048;-93
2022/10/19 08:12:23;;;;;;;155.82;42.35;;;13.10;99.90;;;;;;6183484;23;20036;-94
2022/10/19 08:15:16;;;;;;;153.65;40.40;;;13.10;99.90;;;;;;6148366;23;20021;-94
2022/10/19 08:18:27;;;;;;;130.98;39.15;;;13.10;99.90;;;;;;6109951;23;20058;-94
2022/10/19 08:25:36;;;;;;;118.43;39.67;;;13.40;99.90;;;;;;5992180;23;20032;-93
2022/10/19 08:28:30;;;;;;;109.65;35.72;;;13.40;99.90;;;;;;6000794;24;20024;-90
2022/10/19 08:31:24;;;;;;;106.88;37.00;;;13.40;99.90;;;;;;5982045;24;20024;-92
2022/10/19 08:34:24;;;;;;;116.63;38.70;;;13.40;99.90;;;;;;5985814;23;20028;-94
2022/10/19 08:37:31;;;;;;;101.18;35.28;;;13.40;99.90;;;;;;6005911;23;20093;-86
2022/10/19 08:40:30;;;;;;;103.85;36.72;;;13.50;99.90;;;;;;6007702;23;20082;-93
2022/10/19 08:47:41;;;;;;;91.38;33.58;;;13.80;99.90;;;;;;6151356;23;20021;-91
2022/10/19 08:50:42;;;;;;;69.00;28.40;;;13.70;99.90;;;;;;6188363;23;20037;-91
2022/10/19 08:53:39;;;;;;;64.35;26.65;;;13.70;99.90;;;;;;6221441;23;20094;-91
2022/10/19 08:56:46;;;;;;;58.95;25.58;;;13.50;99.90;;;;;;6243622;23;20027;-87
2022/10/19 09:00:14;;;;;;;54.50;25.73;;;13.60;99.90;;;;;;6240608;23;20013;-86
2022/10/19 09:03:22;;;;;;;57.22;23.88;;;13.60;99.90;;;;;;6242989;23;20009;-86
2022/10/19 09:06:57;;;;;;;;;;;;;;;;;;;;;
2022/10/19 09:10:26;;;;;;;48.25;22.73;;;13.90;99.90;;;;;;6203854;23;20027;-92
2022/10/19 09:14:14;;;;;;;36.80;19.60;;;14.00;99.90;;;;;;6186089;23;20049;-93
2022/10/19 09:17:15;;;;;;;34.28;18.50;;;14.00;99.90;;;;;;6168970;23;20031;-93
2022/10/19 09:20:37;;;;;;;33.03;18.30;;;14.00;99.90;;;;;;6194193;23;20136;-93
2022/10/19 09:23:44;;;;;;;34.28;18.42;;;14.10;99.90;;;;;;6199017;23;20025;-93
2022/10/19 09:26:55;;;;;;;31.83;19.42;;;14.10;99.90;;;;;;6202035;23;20032;-92
2022/10/19 09:30:03;;;;;;;33.75;18.58;;;14.00;99.90;;;;;;6197210;23;20424;-92
2022/10/19 09:33:13;;;;;;;34.88;18.63;;;14.00;99.90;;;;;;6181717;23;20021;-94
2022/10/19 09:36:05;;;;;;;;;;;13.90;99.90;;;;;;6174912;23;20025;-92
2022/10/19 09:38:54;;;;;;;36.83;17.83;;;14.00;99.90;;;;;;6192797;23;19923;-92
2022/10/19 09:41:50;;;;;;;27.50;16.20;;;14.00;99.90;;;;;;6190214;23;20060;-91
2022/10/19 09:44:49;;;;;;;27.17;17.25;;;14.10;99.90;;;;;;6193490;23;20029;-95
2022/10/19 09:47:44;;;;;;;34.63;16.25;;;14.20;99.90;;;;;;6177417;23;20031;-92
2022/10/19 09:50:32;;;;;;;27.83;15.75;;;14.20;99.90;;;;;;6197636;23;20025;-92
2022/10/19 09:53:58;;;;;;;;;;;;;;;;;;;;;
2022/10/19 09:57:16;;;;;;;31.55;17.38;;;14.00;99.90;;;;;;6197335;23;20139;-93
2022/10/19 10:00:18;;;;;;;33.08;16.98;;;14.00;99.90;;;;;;6179525;23;20060;-92
2022/10/19 10:03:07;;;;;;;29.83;16.25;;;14.00;99.90;;;;;;6193522;23;20029;-92
2022/10/19 10:06:03;;;;;;;25.88;17.13;;;14.00;99.90;;;;;;6156197;23;20025;-90
2022/10/19 10:08:57;;;;;;;23.67;16.40;;;14.00;99.90;;;;;;6193158;23;20085;-92
2022/10/19 10:11:50;;;;;;;24.23;17.15;;;14.00;99.90;;;;;;6192714;23;20017;-90
2022/10/19 10:14:42;;;;;;;24.05;15.43;;;14.10;99.90;;;;;;6190542;23;20084;-92
2022/10/19 10:17:30;;;;;;;23.17;15.02;;;14.20;99.90;;;;;;6189326;23;20148;-93
2022/10/19 10:20:29;;;;;;;24.83;15.93;;;14.20;99.90;;;;;;6191203;23;20028;-94
2022/10/19 10:23:23;;;;;;;19.27;14.20;;;14.20;99.90;;;;;;6192585;23;20081;-90
2022/10/19 10:26:18;;;;;;;23.58;14.57;;;14.20;67.80;;;;;;6191067;23;20044;-93
2022/10/19 10:29:16;;;;;;;25.75;15.45;;;14.10;99.90;;;;;;6193172;23;20194;-92
2022/10/19 10:32:21;;;;;;;20.13;13.90;;;14.10;36.90;;;;;;6191190;23;20025;-90
2022/10/19 10:35:32;;;;;;;20.50;14.52;;;14.10;99.90;;;;;;6189412;23;20032;-91
2022/10/19 10:38:25;;;;;;;19.30;13.60;;;13.90;1.00;;;;;;6194158;23;20433;-92
2022/10/19 10:41:21;;;;;;;18.52;12.40;;;13.90;99.90;;;;;;6191988;23;20025;-92
2022/10/19 10:44:25;;;;;;;17.88;10.20;;;13.90;61.30;;;;;;6193022;23;20025;-93
2022/10/19 10:47:20;;;;;;;12.98;9.68;;;14.00;99.90;;;;;;6192491;23;20028;-94
2022/10/19 10:50:21;;;;;;;12.75;9.38;;;14.00;99.90;;;;;;6188328;23;20028;-93
2022/10/19 10:54:09;;;;;;;10.70;8.27;;;14.10;99.90;;;;;;6189257;23;20021;-93
2022/10/19 10:57:14;;;;;;;13.60;10.05;;;14.20;1.00;;;;;;6141707;23;20304;-93
2022/10/19 11:00:20;;;;;;;10.18;7.25;;;14.30;1.00;;;;;;6193199;23;20063;-94
2022/10/19 11:03:17;;;;;;;6.90;5.40;;;14.40;99.90;;;;;;6192696;23;20368;-94
2022/10/19 11:06:21;;;;;;;8.55;5.72;;;14.50;23.40;;;;;;6190954;23;20039;-94
2022/10/19 11:09:33;;;;;;;8.20;5.40;;;14.60;1.00;;;;;;6189786;23;20448;-93
2022/10/19 11:12:31;;;;;;;8.68;5.18;;;14.70;99.90;;;;;;6191927;23;20021;-94
2022/10/19 11:15:32;;;;;;;5.50;4.65;;;15.00;99.90;;;;;;6190207;23;20424;-91
2022/10/19 11:18:34;;;;;;;9.38;5.35;;;15.10;45.40;;;;;;6193003;23;20072;-94
2022/10/19 11:21:32;;;;;;;6.10;4.88;;;15.10;1.00;;;;;;6192001;23;20021;-94
2022/10/19 11:24:41;;;;;;;7.47;4.97;;;14.90;99.90;;;;;;6190200;23;20439;-92
2022/10/19 11:27:56;;;;;;;7.63;4.85;;;14.80;99.90;;;;;;6193136;23;20324;-92
2022/10/19 11:31:21;;;;;;;7.50;4.93;;;14.90;1.00;;;;;;6197613;23;20303;-94
2022/10/19 11:34:37;;;;;;;7.03;5.25;;;14.90;1.00;;;;;;6188216;23;20048;-93
2022/10/19 11:37:49;;;;;;;5.78;4.50;;;14.80;99.90;;;;;;6189635;23;20047;-90
2022/10/19 11:41:06;;;;;;;;;;;14.80;99.90;;;;;;6189619;23;20029;-92
2022/10/19 11:44:18;;;;;;;5.32;4.25;;;15.00;99.90;;;;;;6191527;23;19947;-91
2022/10/19 11:47:42;;;;;;;7.25;4.28;;;15.10;99.90;;;;;;6191439;23;20081;-93
2022/10/19 11:51:15;;;;;;;5.25;3.58;;;15.40;99.90;;;;;;6203492;23;20021;-92
2022/10/19 11:54:47;;;;;;;3.97;3.58;;;15.60;99.90;;;;;;6195866;23;20029;-93
2022/10/19 11:57:58;;;;;;;4.63;3.85;;;15.70;11.20;;;;;;6190174;23;20286;-92
2022/10/19 12:01:16;;;;;;;3.95;3.55;;;15.90;1.00;;;;;;6188324;23;20124;-91
2022/10/19 12:04:28;;;;;;;5.20;3.88;;;16.10;1.00;;;;;;6188816;23;20297;-90
2022/10/19 12:08:10;;;;;;;5.32;4.35;;;16.30;99.90;;;;;;6187282;23;20106;-92
2022/10/19 12:11:22;;;;;;;5.75;4.05;;;16.40;99.90;;;;;;6070458;23;20041;-92
2022/10/19 12:18:37;;;;;;;8.57;4.18;;;16.00;99.90;;;;;;6070865;23;20140;-92
2022/10/19 12:21:37;;;;;;;5.47;4.03;;;16.00;99.90;;;;;;6175179;23;20036;-92
2022/10/19 12:24:29;;;;;;;6.53;4.10;;;16.00;99.90;;;;;;6192227;23;20035;-92
2022/10/19 12:27:34;;;;;;;6.38;3.50;;;16.10;99.90;;;;;;6190173;23;20037;-92
2022/10/19 12:30:23;;;;;;;4.55;3.60;;;16.20;99.90;;;;;;6188596;23;20088;-93
2022/10/19 12:33:29;;;;;;;6.28;3.50;;;16.20;99.90;;;;;;6189185;23;20025;-93
2022/10/19 12:36:37;;;;;;;7.05;4.20;;;16.20;99.90;;;;;;6189405;23;20029;-91
2022/10/19 12:39:36;;;;;;;5.63;4.00;;;16.00;99.90;;;;;;6189551;23;20379;-91
2022/10/19 12:46:22;;;;;;;9.80;5.03;;;15.80;99.90;;;;;;6079423;23;20291;-89
2022/10/19 12:49:31;;;;;;;8.27;4.68;;;15.60;99.90;;;;;;6186800;23;20032;-91
2022/10/19 12:52:45;;;;;;;8.88;5.15;;;15.60;99.90;;;;;;6186165;23;20132;-91
2022/10/19 12:55:35;;;;;;;13.57;7.13;;;15.80;99.90;;;;;;6185224;23;20075;-91
2022/10/19 13:11:14;;;;;;;7.30;5.88;;;15.90;99.90;;;;;;6072922;23;20031;-92
2022/10/19 13:14:19;;;;;;;10.65;6.85;;;15.80;99.90;;;;;;6048940;23;20030;-89
2022/10/19 13:17:10;;;;;;;7.38;6.03;;;15.80;99.90;;;;;;6090997;23;20425;-88
2022/10/19 13:20:12;;;;;;;7.97;6.30;;;15.90;99.90;;;;;;6188571;23;20025;-90
2022/10/19 13:23:03;;;;;;;9.50;5.90;;;16.10;99.90;;;;;;6188078;23;20052;-89
2022/10/19 13:26:32;;;;;;;8.23;6.15;;;16.20;99.90;;;;;;6188125;23;20349;-89
2022/10/19 13:29:43;;;;;;;7.50;6.38;;;16.30;99.90;;;;;;6189901;23;20348;-91
2022/10/19 13:32:53;;;;;;;10.98;5.78;;;16.40;99.90;;;;;;6189079;23;20017;-87
2022/10/19 13:35:41;;;;;;;8.13;6.78;;;16.40;52.50;;;;;;6187636;23;20032;-87
2022/10/19 13:39:04;;;;;;;8.70;6.75;;;16.40;11.40;;;;;;6186711;23;20318;-86
2022/10/19 13:41:56;;;;;;;7.18;5.95;;;16.50;1.00;;;;;;6186497;23;20056;-87
2022/10/19 13:44:46;;;;;;;8.90;6.85;;;16.60;1.00;;;;;;6187767;23;20439;-88
2022/10/19 13:47:41;;;;;;;6.55;5.82;;;16.50;1.00;;;;;;6185573;23;20028;-88
2022/10/19 13:51:17;;;;;;;7.55;6.45;;;16.50;1.00;;;;;;6112985;23;20164;-89
2022/10/19 13:54:13;;;;;;;7.47;5.82;;;16.40;1.00;;;;;;6127827;23;20022;-89
2022/10/19 13:57:38;;;;;;;7.75;6.70;;;16.40;1.00;;;;;;6131246;23;20111;-89
2022/10/19 14:00:51;;;;;;;6.60;5.90;;;16.30;1.00;;;;;;6109130;23;20144;-90
2022/10/19 14:04:15;;;;;;;10.70;6.82;;;16.20;1.00;;;;;;6027244;23;20080;-91
2022/10/19 14:07:25;;;;;;;8.43;6.35;;;16.10;1.00;;;;;;6020531;23;20035;-89
2022/10/19 14:10:27;;;;;;;9.95;6.28;;;16.10;1.00;;;;;;6020806;23;20023;-90
2022/10/19 14:13:31;;;;;;;10.23;6.38;;;15.90;5.40;;;;;;6002097;23;20084;-88
2022/10/19 14:16:29;;;;;;;8.43;7.30;;;15.90;14.60;;;;;;6027340;23;20034;-90
2022/10/19 14:19:39;;;;;;;9.18;7.03;;;15.90;35.10;;;;;;6025556;23;20031;-89
2022/10/19 14:22:47;;;;;;;;;;;;;;;;;;;;;
2022/10/19 14:26:03;;;;;;;8.95;6.55;;;15.70;63.30;;;;;;6124768;23;20025;-91
2022/10/19 14:29:25;;;;;;;6.72;6.03;;;15.70;95.20;;;;;;6122256;23;20504;-93
2022/10/19 14:32:34;;;;;;;8.32;6.25;;;15.60;99.90;;;;;;6110281;23;20029;-92
2022/10/19 14:35:36;;;;;;;9.93;5.80;;;15.50;99.90;;;;;;6114022;23;20018;-90
2022/10/19 14:38:24;;;;;;;6.55;5.85;;;15.40;99.90;;;;;;6113397;23;20069;-90
2022/10/19 14:41:37;;;;;;;14.52;6.80;;;15.50;99.90;;;;;;6111713;23;20030;-88
2022/10/19 14:45:08;;;;;;;7.40;6.35;;;15.40;99.90;;;;;;6127366;23;20030;-89
2022/10/19 14:48:22;;;;;;;7.05;5.70;;;15.30;99.90;;;;;;6167200;23;20052;-89
2022/10/19 14:51:31;;;;;;;7.93;5.78;;;15.30;99.90;;;;;;6187855;23;20033;-92
2022/10/19 14:54:35;;;;;;;9.65;6.07;;;15.30;99.90;;;;;;6192200;23;20021;-91
2022/10/19 14:57:35;;;;;;;8.32;6.38;;;15.40;99.90;;;;;;6189182;23;20032;-90
2022/10/19 15:00:25;;;;;;;9.95;5.97;;;15.40;99.90;;;;;;6187401;23;20025;-91
2022/10/19 15:03:32;;;;;;;8.18;5.85;;;15.50;77.90;;;;;;6177804;23;20078;-89
2022/10/19 15:06:34;;;;;;;10.05;7.15;;;15.40;42.00;;;;;;6185924;23;20052;-89
2022/10/19 15:09:28;;;;;;;7.53;6.72;;;15.30;49.30;;;;;;6186649;23;20322;-91
2022/10/19 15:12:36;;;;;;;10.07;6.43;;;15.30;68.30;;;;;;6185522;23;20021;-88
2022/10/19 15:15:29;;;;;;;7.40;6.50;;;15.30;80.50;;;;;;6185087;23;20075;-88
2022/10/19 15:18:25;;;;;;;8.02;6.30;;;15.30;98.80;;;;;;6186662;23;20021;-88
2022/10/19 15:21:34;;;;;;;10.85;7.05;;;15.30;99.90;;;;;;6185492;23;20167;-89
2022/10/19 15:24:29;;;;;;;10.23;7.28;;;15.30;71.80;;;;;;6185353;23;20428;-89
2022/10/19 15:27:21;;;;;;;9.63;7.18;;;15.20;61.90;;;;;;6186624;23;20029;-90
2022/10/19 15:30:25;;;;;;;8.02;6.78;;;15.10;99.70;;;;;;6186196;23;20029;-90
2022/10/19 15:33:15;;;;;;;10.88;7.15;;;15.10;99.90;;;;;;6186452;23;20032;-91
2022/10/19 15:36:15;;;;;;;8.60;6.80;;;15.00;99.90;;;;;;6184612;23;20025;-91
2022/10/19 15:39:28;;;;;;;10.60;8.15;;;15.00;99.90;;;;;;6186220;23;20341;-91
2022/10/19 15:42:45;;;;;;;10.07;8.18;;;14.90;99.90;;;;;;6186379;23;20032;-89
2022/10/19 15:46:16;;;;;;;9.20;8.13;;;14.70;99.90;;;;;;6186943;23;20025;-93
2022/10/19 15:49:35;;;;;;;10.00;8.73;;;14.60;99.90;;;;;;6193758;23;20052;-92
2022/10/19 15:52:30;;;;;;;10.35;8.50;;;14.60;99.90;;;;;;6071097;23;20097;-93
2022/10/19 16:00:20;;;;;;;10.90;8.32;;;14.40;99.90;;;;;;6084140;23;20030;-93
2022/10/19 16:03:22;;;;;;;13.25;8.55;;;14.40;99.90;;;;;;6191234;23;20100;-91
2022/10/19 16:07:09;;;;;;;10.75;8.77;;;14.40;99.90;;;;;;6100497;23;20030;-93
2022/10/19 16:10:43;;;;;;;11.93;8.13;;;14.30;99.90;;;;;;6101321;23;20445;-93
2022/10/19 16:17:45;;;;;;;11.63;8.48;;;14.20;99.90;;;;;;6097039;23;20006;-92
2022/10/19 16:20:45;;;;;;;13.25;8.70;;;14.10;99.90;;;;;;6080785;23;20041;-92
2022/10/19 16:24:28;;;;;;;12.00;9.40;;;14.00;99.90;;;;;;6037919;23;20034;-90
2022/10/19 16:38:45;;;;;;;;;;;13.70;1.00;;;;;;5992003;23;20471;-90
2022/10/19 16:42:05;;;;;;;14.68;11.55;;;13.50;1.00;;;;;;5992620;24;19922;-92
2022/10/19 16:44:58;;;;;;;13.00;10.73;;;13.40;17.90;;;;;;5995131;23;20083;-91
2022/10/19 16:48:44;;;;;;;14.38;9.88;;;13.20;99.90;;;;;;6069972;23;20026;-91
2022/10/19 16:52:06;;;;;;;;;;;;;;;;;;;;;
2022/10/19 16:59:30;;;;;;;18.08;12.52;;;12.90;99.90;;;;;;6114932;23;20106;-92
2022/10/19 17:07:33;;;;;;;;;;;;;;;;;;;;;
2022/10/19 17:10:38;;;;;;;16.35;12.50;;;12.90;1.00;;;;;;6068973;23;20078;-93
2022/10/19 17:14:16;;;;;;;17.10;11.80;;;12.90;17.60;;;;;;6093272;23;20015;-91
2022/10/19 17:17:33;;;;;;;14.07;11.40;;;13.00;3.80;;;;;;6098451;23;20061;-92
2022/10/19 17:20:54;;;;;;;15.10;12.57;;;13.00;1.00;;;;;;6072835;23;20040;-92
2022/10/19 17:28:23;;;;;;;20.15;11.80;;;13.20;99.90;;;;;;5930665;24;20062;-92
2022/10/19 17:32:10;;;;;;;;;;;;;;;;;;;;;
2022/10/19 17:35:59;;;;;;;13.45;10.98;;;13.20;99.90;;;;;;5939860;24;20107;-91
2022/10/19 17:39:18;;;;;;;16.00;11.05;;;13.20;99.90;;;;;;5933720;24;20029;-92
2022/10/19 17:42:19;;;;;;;13.63;10.10;;;13.20;99.90;;;;;;5995296;23;20091;-92
2022/10/19 17:45:30;;;;;;;14.98;11.18;;;13.20;99.90;;;;;;6015188;23;20023;-91
2022/10/19 17:48:24;;;;;;;13.32;9.77;;;13.30;99.90;;;;;;6089640;23;20055;-92
2022/10/19 17:51:20;;;;;;;12.60;10.27;;;13.30;99.90;;;;;;6128088;23;20060;-92
2022/10/19 17:54:45;;;;;;;10.65;9.05;;;13.30;99.90;;;;;;6126959;23;20021;-91
2022/10/19 17:57:56;;;;;;;13.48;10.82;;;13.30;99.90;;;;;;6146996;23;20009;-92
2022/10/19 18:01:00;;;;;;;11.80;9.88;;;13.40;99.90;;;;;;6146804;23;20041;-92
2022/10/19 18:04:10;;;;;;;33.28;19.50;;;13.30;99.90;;;;;;6147687;23;20035;-91
2022/10/19 18:07:03;;;;;;;36.25;24.10;;;13.30;99.90;;;;;;6198026;23;20021;-92
2022/10/19 18:09:54;;;;;;;16.58;12.77;;;13.30;99.90;;;;;;6236617;23;20025;-91
2022/10/19 18:13:34;;;;;;;21.30;14.73;;;13.30;99.90;;;;;;6237584;23;20032;-92
2022/10/19 18:17:03;;;;;;;14.48;11.63;;;13.30;99.90;;;;;;6233071;23;20032;-91
2022/10/19 18:19:50;;;;;;;16.92;11.25;;;13.40;99.90;;;;;;6210102;23;20035;-91
2022/10/19 18:22:43;;;;;;;20.35;13.15;;;13.30;99.90;;;;;;6212521;23;20024;-91
2022/10/19 18:25:33;;;;;;;16.85;12.05;;;13.40;99.90;;;;;;6211946;23;20020;-93
2022/10/19 18:28:40;;;;;;;16.27;13.43;;;13.40;99.90;;;;;;6215926;23;20017;-91
2022/10/19 18:31:52;;;;;;;20.42;14.88;;;13.40;99.90;;;;;;6216460;23;20044;-93
2022/10/19 18:34:53;;;;;;;17.75;12.75;;;13.40;99.90;;;;;;6218711;23;20020;-91
2022/10/19 18:38:28;;;;;;;;;;;;;;;;;;;;;
2022/10/19 18:41:52;;;;;;;25.10;16.40;;;13.50;99.90;;;;;;6237988;23;20067;-92
2022/10/19 18:45:06;;;;;;;37.33;22.88;;;13.50;99.90;;;;;;6199788;23;20434;-90
2022/10/19 18:47:57;;;;;;;29.25;19.60;;;13.50;99.90;;;;;;6207701;23;20099;-89
2022/10/19 18:50:55;;;;;;;19.30;14.82;;;13.50;99.90;;;;;;6201515;23;20098;-93
2022/10/19 18:53:54;;;;;;;16.95;12.45;;;13.50;99.90;;;;;;6222979;23;20796;-90
2022/10/19 18:56:45;;;;;;;14.48;12.15;;;13.50;99.90;;;;;;6200545;23;20066;-90
2022/10/19 18:59:33;;;;;;;14.93;12.27;;;13.50;99.90;;;;;;6210211;23;20021;-90
2022/10/19 19:02:27;;;;;;;18.58;13.35;;;13.40;99.90;;;;;;6231340;23;20096;-88
2022/10/19 19:05:32;;;;;;;22.55;14.05;;;13.40;99.90;;;;;;6217029;23;20024;-92
2022/10/19 19:08:19;;;;;;;15.45;12.95;;;13.20;99.90;;;;;;6240779;23;20016;-92
2022/10/19 19:11:23;;;;;;;15.45;13.40;;;13.10;99.90;;;;;;6224733;23;20060;-91
2022/10/19 19:14:14;;;;;;;17.58;14.00;;;13.00;99.90;;;;;;6242280;23;20013;-90
2022/10/19 19:17:01;;;;;;;18.15;13.68;;;13.00;99.90;;;;;;6219651;23;20051;-91
2022/10/19 19:19:49;;;;;;;19.60;14.00;;;13.00;1.00;;;;;;6214009;23;20034;-91
2022/10/19 19:22:47;;;;;;;19.55;15.27;;;12.90;1.00;;;;;;6211499;23;20032;-91